sensor_id;sensor_type;location;lat;lon;timestamp;P1;durP1;ratioP1;P2;durP2;ratioP2
10090;SDS011;5084;51.386;6.778;2023-04-30T00:00:08;4.87;;;4.47;;
10090;SDS011;5084;51.386;6.778;2023-04-30T00:02:34;5.77;;;5.07;;
10090;SDS011;5084;51.386;6.778;2023-04-30T00:05:00;5.83;;;4.80;;
10090;SDS011;5084;51.386;6.778;2023-04-30T00:07:27;5.17;;;4.67;;
10090;SDS011;5084;51.386;6.778;2023-04-30T00:09:53;6.57;;;4.97;;
10090;SDS011;5084;51.386;6.778;2023-04-30T00:12:19;4.87;;;4.40;;
10090;SDS011;5084;51.386;6.778;2023-04-30T00:14:45;5.80;;;5.20;;
10090;SDS011;5084;51.386;6.778;2023-04-30T00:17:11;4.80;;;4.30;;
10090;SDS011;5084;51.386;6.778;2023-04-30T00:19:37;5.27;;;4.77;;
10090;SDS011;5084;51.386;6.778;2023-04-30T00:22:03;5.67;;;4.70;;
10090;SDS011;5084;51.386;6.778;2023-04-30T00:24:30;5.47;;;4.97;;
10090;SDS011;5084;51.386;6.778;2023-04-30T00:26:56;6.53;;;4.70;;
10090;SDS011;5084;51.386;6.778;2023-04-30T00:29:22;4.67;;;4.27;;
10090;SDS011;5084;51.386;6.778;2023-04-30T00:31:48;6.17;;;4.83;;
10090;SDS011;5084;51.386;6.778;2023-04-30T00:34:15;6.03;;;4.60;;
10090;SDS011;5084;51.386;6.778;2023-04-30T00:36:41;4.60;;;4.20;;
10090;SDS011;5084;51.386;6.778;2023-04-30T00:39:07;5.27;;;4.73;;
10090;SDS011;5084;51.386;6.778;2023-04-30T00:41:34;4.97;;;4.57;;
10090;SDS011;5084;51.386;6.778;2023-04-30T00:44:00;4.77;;;4.30;;
10090;SDS011;5084;51.386;6.778;2023-04-30T00:46:27;5.07;;;4.57;;
10090;SDS011;5084;51.386;6.778;2023-04-30T00:48:53;5.33;;;4.83;;
10090;SDS011;5084;51.386;6.778;2023-04-30T00:51:19;4.73;;;4.33;;
10090;SDS011;5084;51.386;6.778;2023-04-30T00:53:45;5.23;;;4.60;;
10090;SDS011;5084;51.386;6.778;2023-04-30T00:56:12;4.93;;;4.37;;
10090;SDS011;5084;51.386;6.778;2023-04-30T00:58:40;5.87;;;4.90;;
10090;SDS011;5084;51.386;6.778;2023-04-30T01:01:06;5.57;;;5.07;;
10090;SDS011;5084;51.386;6.778;2023-04-30T01:03:32;5.43;;;4.93;;
10090;SDS011;5084;51.386;6.778;2023-04-30T01:06:00;5.37;;;4.87;;
10090;SDS011;5084;51.386;6.778;2023-04-30T01:08:28;5.40;;;4.90;;
10090;SDS011;5084;51.386;6.778;2023-04-30T01:11:07;5.43;;;4.67;;
10090;SDS011;5084;51.386;6.778;2023-04-30T01:16:32;5.30;;;4.63;;
10090;SDS011;5084;51.386;6.778;2023-04-30T01:19:03;4.83;;;4.33;;
10090;SDS011;5084;51.386;6.778;2023-04-30T01:21:31;5.03;;;4.53;;
10090;SDS011;5084;51.386;6.778;2023-04-30T01:26:47;5.47;;;4.90;;
10090;SDS011;5084;51.386;6.778;2023-04-30T01:29:17;5.27;;;4.77;;
10090;SDS011;5084;51.386;6.778;2023-04-30T01:31:44;4.63;;;4.23;;
10090;SDS011;5084;51.386;6.778;2023-04-30T01:34:10;6.60;;;4.70;;
10090;SDS011;5084;51.386;6.778;2023-04-30T01:36:44;5.33;;;4.70;;
10090;SDS011;5084;51.386;6.778;2023-04-30T01:47:05;5.13;;;4.53;;
10090;SDS011;5084;51.386;6.778;2023-04-30T01:52:46;5.43;;;4.93;;
10090;SDS011;5084;51.386;6.778;2023-04-30T01:55:17;5.90;;;5.28;;
10090;SDS011;5084;51.386;6.778;2023-04-30T01:58:27;5.10;;;4.60;;
10090;SDS011;5084;51.386;6.778;2023-04-30T02:00:34;5.60;;;5.10;;
10090;SDS011;5084;51.386;6.778;2023-04-30T02:03:01;5.53;;;5.03;;
10090;SDS011;5084;51.386;6.778;2023-04-30T02:05:27;5.80;;;5.30;;
10090;SDS011;5084;51.386;6.778;2023-04-30T02:07:53;4.63;;;4.23;;
10090;SDS011;5084;51.386;6.778;2023-04-30T02:10:20;4.90;;;4.37;;
10090;SDS011;5084;51.386;6.778;2023-04-30T02:12:47;6.50;;;4.87;;
10090;SDS011;5084;51.386;6.778;2023-04-30T02:15:13;5.47;;;4.97;;
10090;SDS011;5084;51.386;6.778;2023-04-30T02:17:40;5.73;;;4.63;;
10090;SDS011;5084;51.386;6.778;2023-04-30T02:20:06;4.40;;;4.00;;
10090;SDS011;5084;51.386;6.778;2023-04-30T02:22:33;5.77;;;5.27;;
10090;SDS011;5084;51.386;6.778;2023-04-30T02:24:59;5.13;;;4.67;;
10090;SDS011;5084;51.386;6.778;2023-04-30T02:27:27;5.87;;;5.00;;
10090;SDS011;5084;51.386;6.778;2023-04-30T02:29:53;4.97;;;4.53;;
10090;SDS011;5084;51.386;6.778;2023-04-30T02:32:20;5.60;;;5.10;;
10090;SDS011;5084;51.386;6.778;2023-04-30T02:34:46;5.33;;;4.80;;
10090;SDS011;5084;51.386;6.778;2023-04-30T02:37:13;7.03;;;4.93;;
10090;SDS011;5084;51.386;6.778;2023-04-30T02:39:39;5.97;;;5.37;;
10090;SDS011;5084;51.386;6.778;2023-04-30T02:42:05;6.13;;;5.53;;
10090;SDS011;5084;51.386;6.778;2023-04-30T02:44:32;5.37;;;4.87;;
10090;SDS011;5084;51.386;6.778;2023-04-30T02:46:58;5.57;;;5.07;;
10090;SDS011;5084;51.386;6.778;2023-04-30T02:49:25;5.63;;;5.13;;
10090;SDS011;5084;51.386;6.778;2023-04-30T02:51:52;5.53;;;5.03;;
10090;SDS011;5084;51.386;6.778;2023-04-30T02:54:18;6.33;;;5.53;;
10090;SDS011;5084;51.386;6.778;2023-04-30T02:56:44;5.97;;;5.27;;
10090;SDS011;5084;51.386;6.778;2023-04-30T02:59:11;6.53;;;5.27;;
10090;SDS011;5084;51.386;6.778;2023-04-30T03:01:37;5.63;;;5.10;;
10090;SDS011;5084;51.386;6.778;2023-04-30T03:04:03;6.80;;;5.43;;
10090;SDS011;5084;51.386;6.778;2023-04-30T03:06:30;6.00;;;5.40;;
10090;SDS011;5084;51.386;6.778;2023-04-30T03:08:57;6.47;;;5.23;;
10090;SDS011;5084;51.386;6.778;2023-04-30T03:11:23;6.20;;;5.70;;
10090;SDS011;5084;51.386;6.778;2023-04-30T03:13:50;7.40;;;5.50;;
10090;SDS011;5084;51.386;6.778;2023-04-30T03:16:17;9.27;;;6.47;;
10090;SDS011;5084;51.386;6.778;2023-04-30T03:18:44;6.10;;;5.47;;
10090;SDS011;5084;51.386;6.778;2023-04-30T03:21:10;6.57;;;5.87;;
10090;SDS011;5084;51.386;6.778;2023-04-30T03:23:36;5.80;;;5.30;;
10090;SDS011;5084;51.386;6.778;2023-04-30T03:26:02;7.20;;;5.30;;
10090;SDS011;5084;51.386;6.778;2023-04-30T03:28:29;6.60;;;6.00;;
10090;SDS011;5084;51.386;6.778;2023-04-30T03:30:55;5.77;;;5.17;;
10090;SDS011;5084;51.386;6.778;2023-04-30T03:33:21;7.10;;;6.50;;
10090;SDS011;5084;51.386;6.778;2023-04-30T03:35:47;6.93;;;5.70;;
10090;SDS011;5084;51.386;6.778;2023-04-30T03:38:14;6.17;;;5.57;;
10090;SDS011;5084;51.386;6.778;2023-04-30T03:40:40;6.33;;;5.70;;
10090;SDS011;5084;51.386;6.778;2023-04-30T03:43:06;5.93;;;5.43;;
10090;SDS011;5084;51.386;6.778;2023-04-30T03:45:32;6.33;;;5.73;;
10090;SDS011;5084;51.386;6.778;2023-04-30T03:47:58;6.13;;;5.53;;
10090;SDS011;5084;51.386;6.778;2023-04-30T03:50:25;6.90;;;6.30;;
10090;SDS011;5084;51.386;6.778;2023-04-30T03:52:52;6.60;;;5.93;;
10090;SDS011;5084;51.386;6.778;2023-04-30T03:55:18;5.60;;;5.10;;
10090;SDS011;5084;51.386;6.778;2023-04-30T03:57:44;6.90;;;6.10;;
10090;SDS011;5084;51.386;6.778;2023-04-30T04:00:10;7.57;;;5.50;;
10090;SDS011;5084;51.386;6.778;2023-04-30T04:02:40;6.60;;;5.93;;
10090;SDS011;5084;51.386;6.778;2023-04-30T04:05:07;6.80;;;6.13;;
10090;SDS011;5084;51.386;6.778;2023-04-30T04:07:33;6.43;;;5.83;;
10090;SDS011;5084;51.386;6.778;2023-04-30T04:10:00;6.63;;;6.00;;
10090;SDS011;5084;51.386;6.778;2023-04-30T04:12:26;6.80;;;6.17;;
10090;SDS011;5084;51.386;6.778;2023-04-30T04:14:52;7.33;;;6.30;;
10090;SDS011;5084;51.386;6.778;2023-04-30T04:17:18;6.83;;;6.13;;
10090;SDS011;5084;51.386;6.778;2023-04-30T04:19:45;7.90;;;5.67;;
10090;SDS011;5084;51.386;6.778;2023-04-30T04:22:11;6.23;;;5.60;;
10090;SDS011;5084;51.386;6.778;2023-04-30T04:24:37;7.43;;;6.10;;
10090;SDS011;5084;51.386;6.778;2023-04-30T04:27:03;7.87;;;6.03;;
10090;SDS011;5084;51.386;6.778;2023-04-30T04:29:29;7.13;;;6.07;;
10090;SDS011;5084;51.386;6.778;2023-04-30T04:31:56;6.90;;;6.20;;
10090;SDS011;5084;51.386;6.778;2023-04-30T04:34:24;7.17;;;6.13;;
10090;SDS011;5084;51.386;6.778;2023-04-30T04:36:51;8.37;;;6.57;;
10090;SDS011;5084;51.386;6.778;2023-04-30T04:39:17;7.47;;;5.87;;
10090;SDS011;5084;51.386;6.778;2023-04-30T04:41:43;6.47;;;5.87;;
10090;SDS011;5084;51.386;6.778;2023-04-30T04:44:10;6.10;;;5.50;;
10090;SDS011;5084;51.386;6.778;2023-04-30T04:46:36;7.43;;;6.60;;
10090;SDS011;5084;51.386;6.778;2023-04-30T04:49:02;7.60;;;6.80;;
10090;SDS011;5084;51.386;6.778;2023-04-30T04:51:28;7.03;;;6.00;;
10090;SDS011;5084;51.386;6.778;2023-04-30T04:53:56;6.90;;;6.20;;
10090;SDS011;5084;51.386;6.778;2023-04-30T04:56:22;6.37;;;5.77;;
10090;SDS011;5084;51.386;6.778;2023-04-30T04:58:49;6.23;;;5.57;;
10090;SDS011;5084;51.386;6.778;2023-04-30T05:01:15;6.67;;;5.77;;
10090;SDS011;5084;51.386;6.778;2023-04-30T05:03:41;8.53;;;6.80;;
10090;SDS011;5084;51.386;6.778;2023-04-30T05:06:07;6.37;;;5.70;;
10090;SDS011;5084;51.386;6.778;2023-04-30T05:08:33;9.67;;;6.10;;
10090;SDS011;5084;51.386;6.778;2023-04-30T05:11:00;7.93;;;6.43;;
10090;SDS011;5084;51.386;6.778;2023-04-30T05:13:26;7.60;;;6.80;;
10090;SDS011;5084;51.386;6.778;2023-04-30T05:15:53;6.60;;;6.00;;
10090;SDS011;5084;51.386;6.778;2023-04-30T05:18:19;6.10;;;5.50;;
10090;SDS011;5084;51.386;6.778;2023-04-30T05:20:45;7.60;;;6.60;;
10090;SDS011;5084;51.386;6.778;2023-04-30T05:23:12;8.17;;;5.70;;
10090;SDS011;5084;51.386;6.778;2023-04-30T05:25:38;7.23;;;6.13;;
10090;SDS011;5084;51.386;6.778;2023-04-30T05:28:05;7.33;;;6.63;;
10090;SDS011;5084;51.386;6.778;2023-04-30T05:30:31;6.37;;;5.57;;
10090;SDS011;5084;51.386;6.778;2023-04-30T05:32:57;7.47;;;6.37;;
10090;SDS011;5084;51.386;6.778;2023-04-30T05:35:24;6.27;;;5.67;;
10090;SDS011;5084;51.386;6.778;2023-04-30T05:37:50;6.50;;;5.90;;
10090;SDS011;5084;51.386;6.778;2023-04-30T05:40:16;7.53;;;6.47;;
10090;SDS011;5084;51.386;6.778;2023-04-30T05:42:42;6.43;;;5.63;;
10090;SDS011;5084;51.386;6.778;2023-04-30T05:45:09;6.57;;;5.63;;
10090;SDS011;5084;51.386;6.778;2023-04-30T05:47:36;6.43;;;5.80;;
10090;SDS011;5084;51.386;6.778;2023-04-30T05:50:02;6.63;;;5.93;;
10090;SDS011;5084;51.386;6.778;2023-04-30T05:52:29;7.13;;;6.43;;
10090;SDS011;5084;51.386;6.778;2023-04-30T05:54:56;6.83;;;6.17;;
10090;SDS011;5084;51.386;6.778;2023-04-30T05:57:22;7.87;;;6.03;;
10090;SDS011;5084;51.386;6.778;2023-04-30T05:59:48;6.70;;;6.00;;
10090;SDS011;5084;51.386;6.778;2023-04-30T06:02:14;6.57;;;5.97;;
10090;SDS011;5084;51.386;6.778;2023-04-30T06:04:40;7.17;;;5.90;;
10090;SDS011;5084;51.386;6.778;2023-04-30T06:07:07;7.57;;;6.30;;
10090;SDS011;5084;51.386;6.778;2023-04-30T06:09:33;6.37;;;5.73;;
10090;SDS011;5084;51.386;6.778;2023-04-30T06:11:59;6.67;;;5.97;;
10090;SDS011;5084;51.386;6.778;2023-04-30T06:14:27;7.87;;;6.40;;
10090;SDS011;5084;51.386;6.778;2023-04-30T06:16:54;7.13;;;6.33;;
10090;SDS011;5084;51.386;6.778;2023-04-30T06:19:20;7.30;;;6.07;;
10090;SDS011;5084;51.386;6.778;2023-04-30T06:21:46;6.93;;;6.17;;
10090;SDS011;5084;51.386;6.778;2023-04-30T06:24:12;8.40;;;6.83;;
10090;SDS011;5084;51.386;6.778;2023-04-30T06:26:38;7.57;;;6.53;;
10090;SDS011;5084;51.386;6.778;2023-04-30T06:29:04;6.53;;;5.90;;
10090;SDS011;5084;51.386;6.778;2023-04-30T06:31:31;8.30;;;6.90;;
10090;SDS011;5084;51.386;6.778;2023-04-30T06:33:58;7.67;;;6.90;;
10090;SDS011;5084;51.386;6.778;2023-04-30T06:36:24;8.17;;;6.67;;
10090;SDS011;5084;51.386;6.778;2023-04-30T06:38:50;7.83;;;6.70;;
10090;SDS011;5084;51.386;6.778;2023-04-30T06:41:17;8.10;;;7.30;;
10090;SDS011;5084;51.386;6.778;2023-04-30T06:43:43;9.47;;;7.53;;
10090;SDS011;5084;51.386;6.778;2023-04-30T06:46:09;8.47;;;7.43;;
10090;SDS011;5084;51.386;6.778;2023-04-30T06:48:35;8.43;;;7.53;;
10090;SDS011;5084;51.386;6.778;2023-04-30T06:51:01;9.00;;;7.60;;
10090;SDS011;5084;51.386;6.778;2023-04-30T06:53:28;9.17;;;7.60;;
10090;SDS011;5084;51.386;6.778;2023-04-30T06:55:54;8.77;;;7.20;;
10090;SDS011;5084;51.386;6.778;2023-04-30T06:58:20;9.40;;;6.87;;
10090;SDS011;5084;51.386;6.778;2023-04-30T07:00:46;8.53;;;7.80;;
10090;SDS011;5084;51.386;6.778;2023-04-30T07:03:12;7.60;;;6.77;;
10090;SDS011;5084;51.386;6.778;2023-04-30T07:05:39;9.47;;;7.57;;
10090;SDS011;5084;51.386;6.778;2023-04-30T07:08:05;9.23;;;7.33;;
10090;SDS011;5084;51.386;6.778;2023-04-30T07:10:31;7.80;;;7.10;;
10090;SDS011;5084;51.386;6.778;2023-04-30T07:12:58;8.27;;;7.47;;
10090;SDS011;5084;51.386;6.778;2023-04-30T07:15:24;9.20;;;8.17;;
10090;SDS011;5084;51.386;6.778;2023-04-30T07:17:50;9.20;;;8.37;;
10090;SDS011;5084;51.386;6.778;2023-04-30T07:20:16;9.83;;;8.53;;
10090;SDS011;5084;51.386;6.778;2023-04-30T07:22:42;11.10;;;8.13;;
10090;SDS011;5084;51.386;6.778;2023-04-30T07:25:10;8.60;;;7.47;;
10090;SDS011;5084;51.386;6.778;2023-04-30T07:27:36;8.00;;;7.20;;
10090;SDS011;5084;51.386;6.778;2023-04-30T07:30:03;10.07;;;8.90;;
10090;SDS011;5084;51.386;6.778;2023-04-30T07:32:29;8.93;;;7.93;;
10090;SDS011;5084;51.386;6.778;2023-04-30T07:34:56;8.73;;;7.43;;
10090;SDS011;5084;51.386;6.778;2023-04-30T07:37:22;9.73;;;7.47;;
10090;SDS011;5084;51.386;6.778;2023-04-30T07:39:48;9.13;;;8.23;;
10090;SDS011;5084;51.386;6.778;2023-04-30T07:42:14;8.57;;;7.77;;
10090;SDS011;5084;51.386;6.778;2023-04-30T07:44:41;9.40;;;8.33;;
10090;SDS011;5084;51.386;6.778;2023-04-30T07:47:07;7.67;;;6.97;;
10090;SDS011;5084;51.386;6.778;2023-04-30T07:49:34;7.90;;;7.03;;
10090;SDS011;5084;51.386;6.778;2023-04-30T07:52:00;7.53;;;6.77;;
10090;SDS011;5084;51.386;6.778;2023-04-30T07:54:26;7.17;;;6.47;;
10090;SDS011;5084;51.386;6.778;2023-04-30T07:56:52;7.37;;;6.67;;
10090;SDS011;5084;51.386;6.778;2023-04-30T07:59:18;8.07;;;6.63;;
10090;SDS011;5084;51.386;6.778;2023-04-30T08:01:45;7.87;;;7.17;;
10090;SDS011;5084;51.386;6.778;2023-04-30T08:04:12;7.77;;;7.07;;
10090;SDS011;5084;51.386;6.778;2023-04-30T08:06:38;7.57;;;6.83;;
10090;SDS011;5084;51.386;6.778;2023-04-30T08:09:04;8.10;;;7.00;;
10090;SDS011;5084;51.386;6.778;2023-04-30T08:11:30;7.80;;;6.97;;
10090;SDS011;5084;51.386;6.778;2023-04-30T08:13:56;8.73;;;7.67;;
10090;SDS011;5084;51.386;6.778;2023-04-30T08:16:22;8.70;;;6.43;;
10090;SDS011;5084;51.386;6.778;2023-04-30T08:18:48;8.37;;;7.50;;
10090;SDS011;5084;51.386;6.778;2023-04-30T08:21:14;7.87;;;7.10;;
10090;SDS011;5084;51.386;6.778;2023-04-30T08:23:42;7.30;;;6.57;;
10090;SDS011;5084;51.386;6.778;2023-04-30T08:26:08;7.20;;;6.50;;
10090;SDS011;5084;51.386;6.778;2023-04-30T08:28:35;7.63;;;6.93;;
10090;SDS011;5084;51.386;6.778;2023-04-30T08:31:01;6.60;;;5.90;;
10090;SDS011;5084;51.386;6.778;2023-04-30T08:33:28;7.90;;;7.10;;
10090;SDS011;5084;51.386;6.778;2023-04-30T08:35:54;7.67;;;6.40;;
10090;SDS011;5084;51.386;6.778;2023-04-30T08:38:20;7.17;;;6.47;;
10090;SDS011;5084;51.386;6.778;2023-04-30T08:40:48;6.87;;;5.97;;
10090;SDS011;5084;51.386;6.778;2023-04-30T08:43:17;7.50;;;5.33;;
10090;SDS011;5084;51.386;6.778;2023-04-30T08:45:45;7.30;;;5.90;;
10090;SDS011;5084;51.386;6.778;2023-04-30T08:48:11;7.40;;;6.20;;
10090;SDS011;5084;51.386;6.778;2023-04-30T08:50:40;6.23;;;5.63;;
10090;SDS011;5084;51.386;6.778;2023-04-30T08:53:06;6.40;;;5.80;;
10090;SDS011;5084;51.386;6.778;2023-04-30T08:55:33;7.03;;;6.33;;
10090;SDS011;5084;51.386;6.778;2023-04-30T08:58:00;5.87;;;5.30;;
10090;SDS011;5084;51.386;6.778;2023-04-30T09:00:26;5.93;;;5.43;;
10090;SDS011;5084;51.386;6.778;2023-04-30T09:02:53;7.43;;;5.30;;
10090;SDS011;5084;51.386;6.778;2023-04-30T09:05:19;6.27;;;5.50;;
10090;SDS011;5084;51.386;6.778;2023-04-30T09:07:45;5.83;;;5.27;;
10090;SDS011;5084;51.386;6.778;2023-04-30T09:10:17;6.20;;;5.63;;
10090;SDS011;5084;51.386;6.778;2023-04-30T09:12:43;5.57;;;5.07;;
10090;SDS011;5084;51.386;6.778;2023-04-30T09:15:10;5.50;;;5.00;;
10090;SDS011;5084;51.386;6.778;2023-04-30T09:17:37;6.63;;;5.93;;
10090;SDS011;5084;51.386;6.778;2023-04-30T09:20:10;6.80;;;4.80;;
10090;SDS011;5084;51.386;6.778;2023-04-30T09:22:36;5.20;;;4.70;;
10090;SDS011;5084;51.386;6.778;2023-04-30T09:25:03;5.50;;;5.00;;
10090;SDS011;5084;51.386;6.778;2023-04-30T09:27:29;4.50;;;4.10;;
10090;SDS011;5084;51.386;6.778;2023-04-30T09:29:56;4.43;;;4.00;;
10090;SDS011;5084;51.386;6.778;2023-04-30T09:32:22;4.97;;;4.23;;
10090;SDS011;5084;51.386;6.778;2023-04-30T09:34:49;4.17;;;3.87;;
10090;SDS011;5084;51.386;6.778;2023-04-30T09:37:15;4.53;;;4.13;;
10090;SDS011;5084;51.386;6.778;2023-04-30T09:39:52;5.33;;;4.60;;
10090;SDS011;5084;51.386;6.778;2023-04-30T09:42:18;5.37;;;3.90;;
10090;SDS011;5084;51.386;6.778;2023-04-30T09:44:45;5.40;;;4.40;;
10090;SDS011;5084;51.386;6.778;2023-04-30T09:47:15;4.33;;;3.70;;
10090;SDS011;5084;51.386;6.778;2023-04-30T09:49:48;4.30;;;3.90;;
10090;SDS011;5084;51.386;6.778;2023-04-30T09:52:16;4.43;;;4.03;;
10090;SDS011;5084;51.386;6.778;2023-04-30T09:54:43;4.07;;;3.77;;
10090;SDS011;5084;51.386;6.778;2023-04-30T09:57:10;4.13;;;3.83;;
10090;SDS011;5084;51.386;6.778;2023-04-30T09:59:36;4.00;;;3.60;;
10090;SDS011;5084;51.386;6.778;2023-04-30T10:02:07;3.73;;;3.43;;
10090;SDS011;5084;51.386;6.778;2023-04-30T10:04:38;3.60;;;3.30;;
10090;SDS011;5084;51.386;6.778;2023-04-30T10:07:05;3.80;;;3.50;;
10090;SDS011;5084;51.386;6.778;2023-04-30T10:09:35;5.23;;;3.63;;
10090;SDS011;5084;51.386;6.778;2023-04-30T10:12:07;3.90;;;3.60;;
10090;SDS011;5084;51.386;6.778;2023-04-30T10:14:33;5.00;;;3.70;;
10090;SDS011;5084;51.386;6.778;2023-04-30T10:17:02;3.50;;;3.20;;
10090;SDS011;5084;51.386;6.778;2023-04-30T10:19:31;4.83;;;3.50;;
10090;SDS011;5084;51.386;6.778;2023-04-30T10:21:59;4.13;;;3.53;;
10090;SDS011;5084;51.386;6.778;2023-04-30T10:24:26;3.73;;;3.40;;
10090;SDS011;5084;51.386;6.778;2023-04-30T10:26:55;3.40;;;3.10;;
10090;SDS011;5084;51.386;6.778;2023-04-30T10:29:22;3.60;;;3.30;;
10090;SDS011;5084;51.386;6.778;2023-04-30T10:31:49;5.07;;;3.30;;
10090;SDS011;5084;51.386;6.778;2023-04-30T10:39:44;3.40;;;3.17;;
10090;SDS011;5084;51.386;6.778;2023-04-30T10:42:14;3.73;;;3.27;;
10090;SDS011;5084;51.386;6.778;2023-04-30T10:44:40;4.60;;;3.10;;
10090;SDS011;5084;51.386;6.778;2023-04-30T10:47:07;3.57;;;3.23;;
10090;SDS011;5084;51.386;6.778;2023-04-30T10:49:33;5.37;;;3.13;;
10090;SDS011;5084;51.386;6.778;2023-04-30T10:52:01;3.60;;;3.27;;
10090;SDS011;5084;51.386;6.778;2023-04-30T10:54:28;2.97;;;2.77;;
10090;SDS011;5084;51.386;6.778;2023-04-30T10:57:12;3.27;;;2.93;;
10090;SDS011;5084;51.386;6.778;2023-04-30T10:59:42;3.43;;;2.80;;
10090;SDS011;5084;51.386;6.778;2023-04-30T11:02:10;2.83;;;2.63;;
10090;SDS011;5084;51.386;6.778;2023-04-30T11:07:24;3.30;;;3.00;;
10090;SDS011;5084;51.386;6.778;2023-04-30T11:09:52;2.97;;;2.77;;
10090;SDS011;5084;51.386;6.778;2023-04-30T11:12:22;3.50;;;3.20;;
10090;SDS011;5084;51.386;6.778;2023-04-30T11:15:05;2.63;;;2.43;;
10090;SDS011;5084;51.386;6.778;2023-04-30T11:17:32;3.33;;;3.00;;
10090;SDS011;5084;51.386;6.778;2023-04-30T11:19:59;3.40;;;3.10;;
10090;SDS011;5084;51.386;6.778;2023-04-30T11:22:26;2.80;;;2.60;;
10090;SDS011;5084;51.386;6.778;2023-04-30T11:29:47;3.10;;;2.90;;
10090;SDS011;5084;51.386;6.778;2023-04-30T11:32:15;2.93;;;2.63;;
10090;SDS011;5084;51.386;6.778;2023-04-30T11:34:42;2.90;;;2.70;;
10090;SDS011;5084;51.386;6.778;2023-04-30T11:37:10;3.27;;;2.97;;
10090;SDS011;5084;51.386;6.778;2023-04-30T11:39:38;3.93;;;3.63;;
10090;SDS011;5084;51.386;6.778;2023-04-30T11:42:05;3.00;;;2.70;;
10090;SDS011;5084;51.386;6.778;2023-04-30T11:44:32;3.47;;;2.63;;
10090;SDS011;5084;51.386;6.778;2023-04-30T11:47:00;3.33;;;3.03;;
10090;SDS011;5084;51.386;6.778;2023-04-30T11:49:26;2.90;;;2.70;;
10090;SDS011;5084;51.386;6.778;2023-04-30T11:51:52;3.20;;;3.00;;
10090;SDS011;5084;51.386;6.778;2023-04-30T11:54:18;3.20;;;2.73;;
10090;SDS011;5084;51.386;6.778;2023-04-30T11:56:45;4.80;;;2.77;;
10090;SDS011;5084;51.386;6.778;2023-04-30T11:59:15;4.03;;;3.63;;
10090;SDS011;5084;51.386;6.778;2023-04-30T12:01:41;3.80;;;2.97;;
10090;SDS011;5084;51.386;6.778;2023-04-30T12:04:08;4.23;;;3.90;;
10090;SDS011;5084;51.386;6.778;2023-04-30T12:06:35;3.00;;;2.80;;
10090;SDS011;5084;51.386;6.778;2023-04-30T12:09:01;3.20;;;2.90;;
10090;SDS011;5084;51.386;6.778;2023-04-30T12:11:31;3.00;;;2.80;;
10090;SDS011;5084;51.386;6.778;2023-04-30T12:14:01;3.07;;;2.87;;
10090;SDS011;5084;51.386;6.778;2023-04-30T12:16:37;3.27;;;2.97;;
10090;SDS011;5084;51.386;6.778;2023-04-30T12:19:04;2.87;;;2.67;;
10090;SDS011;5084;51.386;6.778;2023-04-30T12:21:30;2.70;;;2.50;;
10090;SDS011;5084;51.386;6.778;2023-04-30T12:23:56;3.77;;;2.73;;
10090;SDS011;5084;51.386;6.778;2023-04-30T12:26:22;2.67;;;2.47;;
10090;SDS011;5084;51.386;6.778;2023-04-30T12:28:49;2.40;;;2.20;;
10090;SDS011;5084;51.386;6.778;2023-04-30T12:31:16;2.90;;;2.70;;
10090;SDS011;5084;51.386;6.778;2023-04-30T12:33:43;2.73;;;2.43;;
10090;SDS011;5084;51.386;6.778;2023-04-30T12:36:09;2.60;;;2.40;;
10090;SDS011;5084;51.386;6.778;2023-04-30T12:38:36;2.27;;;2.10;;
10090;SDS011;5084;51.386;6.778;2023-04-30T12:41:04;2.67;;;2.47;;
10090;SDS011;5084;51.386;6.778;2023-04-30T12:43:30;2.87;;;2.67;;
10090;SDS011;5084;51.386;6.778;2023-04-30T12:45:57;2.13;;;1.93;;
10090;SDS011;5084;51.386;6.778;2023-04-30T12:48:24;2.80;;;2.30;;
10090;SDS011;5084;51.386;6.778;2023-04-30T12:51:00;2.57;;;2.40;;
10090;SDS011;5084;51.386;6.778;2023-04-30T12:53:27;2.03;;;1.80;;
10090;SDS011;5084;51.386;6.778;2023-04-30T12:58:52;3.27;;;2.10;;
10090;SDS011;5084;51.386;6.778;2023-04-30T13:01:19;2.13;;;1.93;;
10090;SDS011;5084;51.386;6.778;2023-04-30T13:03:47;4.07;;;2.00;;
10090;SDS011;5084;51.386;6.778;2023-04-30T13:06:14;2.50;;;2.30;;
10090;SDS011;5084;51.386;6.778;2023-04-30T13:08:41;2.20;;;2.10;;
10090;SDS011;5084;51.386;6.778;2023-04-30T13:11:08;2.13;;;2.03;;
10090;SDS011;5084;51.386;6.778;2023-04-30T13:13:35;5.80;;;2.20;;
10090;SDS011;5084;51.386;6.778;2023-04-30T13:16:01;3.70;;;2.30;;
10090;SDS011;5084;51.386;6.778;2023-04-30T13:21:40;2.77;;;2.40;;
10090;SDS011;5084;51.386;6.778;2023-04-30T13:24:07;2.50;;;2.30;;
10090;SDS011;5084;51.386;6.778;2023-04-30T13:26:34;3.33;;;2.20;;
10090;SDS011;5084;51.386;6.778;2023-04-30T13:29:00;2.53;;;2.33;;
10090;SDS011;5084;51.386;6.778;2023-04-30T13:31:28;2.13;;;2.03;;
10090;SDS011;5084;51.386;6.778;2023-04-30T13:33:54;1.80;;;1.70;;
10090;SDS011;5084;51.386;6.778;2023-04-30T13:36:21;2.70;;;2.27;;
10090;SDS011;5084;51.386;6.778;2023-04-30T13:38:47;2.65;;;2.40;;
10090;SDS011;5084;51.386;6.778;2023-04-30T13:41:14;2.60;;;2.40;;
10090;SDS011;5084;51.386;6.778;2023-04-30T13:43:40;2.13;;;2.03;;
10090;SDS011;5084;51.386;6.778;2023-04-30T13:46:09;1.80;;;1.70;;
10090;SDS011;5084;51.386;6.778;2023-04-30T13:48:35;2.17;;;1.97;;
10090;SDS011;5084;51.386;6.778;2023-04-30T13:51:02;2.67;;;2.47;;
10090;SDS011;5084;51.386;6.778;2023-04-30T13:53:28;2.47;;;2.20;;
10090;SDS011;5084;51.386;6.778;2023-04-30T13:55:54;2.40;;;2.20;;
10090;SDS011;5084;51.386;6.778;2023-04-30T13:58:20;3.17;;;2.10;;
10090;SDS011;5084;51.386;6.778;2023-04-30T14:00:47;2.40;;;2.20;;
10090;SDS011;5084;51.386;6.778;2023-04-30T14:03:13;3.70;;;3.40;;
10090;SDS011;5084;51.386;6.778;2023-04-30T14:05:40;2.97;;;2.40;;
10090;SDS011;5084;51.386;6.778;2023-04-30T14:08:06;3.17;;;2.43;;
10090;SDS011;5084;51.386;6.778;2023-04-30T14:10:32;2.63;;;2.20;;
10090;SDS011;5084;51.386;6.778;2023-04-30T14:12:59;2.97;;;2.23;;
10090;SDS011;5084;51.386;6.778;2023-04-30T14:15:25;2.50;;;2.00;;
10090;SDS011;5084;51.386;6.778;2023-04-30T14:17:54;2.13;;;2.00;;
10090;SDS011;5084;51.386;6.778;2023-04-30T14:20:20;3.23;;;3.03;;
10090;SDS011;5084;51.386;6.778;2023-04-30T14:22:46;2.23;;;2.03;;
10090;SDS011;5084;51.386;6.778;2023-04-30T14:25:13;2.60;;;2.20;;
10090;SDS011;5084;51.386;6.778;2023-04-30T14:27:40;2.80;;;2.47;;
10090;SDS011;5084;51.386;6.778;2023-04-30T14:30:06;2.53;;;2.33;;
10090;SDS011;5084;51.386;6.778;2023-04-30T14:32:34;2.33;;;2.13;;
10090;SDS011;5084;51.386;6.778;2023-04-30T14:35:01;1.80;;;1.70;;
10090;SDS011;5084;51.386;6.778;2023-04-30T14:37:28;2.30;;;2.10;;
10090;SDS011;5084;51.386;6.778;2023-04-30T14:39:54;3.77;;;2.30;;
10090;SDS011;5084;51.386;6.778;2023-04-30T14:42:20;5.03;;;2.07;;
10090;SDS011;5084;51.386;6.778;2023-04-30T14:47:51;2.77;;;2.30;;
10090;SDS011;5084;51.386;6.778;2023-04-30T14:50:17;5.50;;;2.53;;
10090;SDS011;5084;51.386;6.778;2023-04-30T14:52:43;2.50;;;2.13;;
10090;SDS011;5084;51.386;6.778;2023-04-30T14:55:11;3.57;;;2.20;;
10090;SDS011;5084;51.386;6.778;2023-04-30T14:57:37;2.60;;;2.40;;
10090;SDS011;5084;51.386;6.778;2023-04-30T15:00:03;2.20;;;2.00;;
10090;SDS011;5084;51.386;6.778;2023-04-30T15:02:30;2.13;;;1.93;;
10090;SDS011;5084;51.386;6.778;2023-04-30T15:04:56;2.10;;;2.00;;
10090;SDS011;5084;51.386;6.778;2023-04-30T15:07:22;2.20;;;2.03;;
10090;SDS011;5084;51.386;6.778;2023-04-30T15:09:48;2.30;;;2.10;;
10090;SDS011;5084;51.386;6.778;2023-04-30T15:12:15;1.93;;;1.83;;
10090;SDS011;5084;51.386;6.778;2023-04-30T15:14:41;2.17;;;1.87;;
10090;SDS011;5084;51.386;6.778;2023-04-30T15:17:08;2.73;;;2.50;;
10090;SDS011;5084;51.386;6.778;2023-04-30T15:19:35;3.00;;;2.60;;
10090;SDS011;5084;51.386;6.778;2023-04-30T15:22:01;4.00;;;3.70;;
10090;SDS011;5084;51.386;6.778;2023-04-30T15:24:27;3.20;;;2.90;;
10090;SDS011;5084;51.386;6.778;2023-04-30T15:26:53;3.37;;;2.90;;
10090;SDS011;5084;51.386;6.778;2023-04-30T15:29:20;2.60;;;2.40;;
10090;SDS011;5084;51.386;6.778;2023-04-30T15:31:46;2.33;;;2.13;;
10090;SDS011;5084;51.386;6.778;2023-04-30T15:34:15;2.43;;;2.23;;
10090;SDS011;5084;51.386;6.778;2023-04-30T15:36:41;2.50;;;2.30;;